createdAt,value
2022-10-01T00:02:00.154Z,98405.91
2022-10-01T00:04:28.387Z,98415.53
2022-10-01T00:07:04.544Z,98419.34
2022-10-01T00:09:34.503Z,98419.88
2022-10-01T00:12:02.870Z,98410.47
2022-10-01T00:14:30.599Z,98408.31
2022-10-01T00:16:58.492Z,98396.94
2022-10-01T00:19:26.322Z,98408.66
2022-10-01T00:21:54.196Z,98402.31
2022-10-01T00:24:23.791Z,98395.53
2022-10-01T00:26:51.448Z,98401.38
2022-10-01T00:29:19.244Z,98408.22
2022-10-01T00:31:46.956Z,98401.16
2022-10-01T00:34:15.012Z,98398.88
2022-10-01T00:36:43.272Z,98396.84
2022-10-01T00:39:11.716Z,98398.38
2022-10-01T00:41:40.952Z,98396.59
2022-10-01T00:44:32.300Z,98399.13
2022-10-01T00:47:05.722Z,98399.47
2022-10-01T00:49:37.745Z,98402.91
2022-10-01T00:52:09.911Z,98408.28
2022-10-01T00:54:44.452Z,98421.78
2022-10-01T00:57:17.553Z,98423.22
2022-10-01T00:59:49.562Z,98424.31
2022-10-01T01:02:17.339Z,98417.31
2022-10-01T01:04:45.332Z,98406.91
2022-10-01T01:07:13.857Z,98405.84
2022-10-01T01:09:46.445Z,98402.81
2022-10-01T01:12:28.288Z,98403.78
2022-10-01T01:15:15.056Z,98385.56
2022-10-01T01:17:52.355Z,98398.31
2022-10-01T01:20:37.721Z,98399.41
2022-10-01T01:23:13.911Z,98392.91
2022-10-01T01:25:49.065Z,98396.00
2022-10-01T01:28:25.192Z,98390.16
2022-10-01T01:30:59.340Z,98391.94
2022-10-01T01:33:30.875Z,98386.06
2022-10-01T01:36:04.484Z,98378.63
2022-10-01T01:38:37.294Z,98370.44
2022-10-01T01:41:09.350Z,98366.38
2022-10-01T01:43:42.017Z,98358.94
2022-10-01T01:46:11.979Z,98356.06
2022-10-01T01:48:41.944Z,98356.75
2022-10-01T01:51:15.783Z,98353.88
2022-10-01T01:53:44.056Z,98350.06
2022-10-01T01:56:11.864Z,98350.53
2022-10-01T01:58:41.219Z,98342.56
2022-10-01T02:01:09.859Z,98347.19
2022-10-01T02:03:37.720Z,98340.91
2022-10-01T02:06:16.834Z,98335.13
2022-10-01T02:08:49.646Z,98338.75
2022-10-01T02:11:24.885Z,98342.59
2022-10-01T02:14:04.281Z,98344.50
2022-10-01T02:16:39.670Z,98341.28
2022-10-01T02:19:19.397Z,98340.03
2022-10-01T02:21:57.086Z,98334.69
2022-10-01T02:24:37.523Z,98333.44
2022-10-01T02:27:12.349Z,98331.16
2022-10-01T02:29:44.441Z,98331.06
2022-10-01T02:32:13.408Z,98330.94
2022-10-01T02:34:43.288Z,98331.53
2022-10-01T02:37:12.667Z,98319.91
2022-10-01T02:39:42.558Z,98324.78
2022-10-01T02:42:14.151Z,98323.44
2022-10-01T02:44:46.557Z,98321.19
2022-10-01T02:47:19.487Z,98320.16
2022-10-01T02:49:48.291Z,98324.47
2022-10-01T02:52:27.136Z,98318.38
2022-10-01T02:54:59.639Z,98316.56
2022-10-01T02:57:27.816Z,98311.13
2022-10-01T02:59:59.705Z,98302.81
2022-10-01T03:02:28.727Z,98307.25
2022-10-01T03:04:57.500Z,98321.72
2022-10-01T03:07:28.949Z,98316.94
2022-10-01T03:09:59.322Z,98311.97
2022-10-01T03:12:27.579Z,98308.34
2022-10-01T03:14:58.904Z,98312.81
2022-10-01T03:17:29.184Z,98302.03
2022-10-01T03:19:56.902Z,98304.81
2022-10-01T03:22:24.953Z,98305.56
2022-10-01T03:24:53.640Z,98302.00
2022-10-01T03:27:22.587Z,98296.41
2022-10-01T03:29:50.432Z,98302.28
2022-10-01T03:32:20.254Z,98293.81
2022-10-01T03:34:47.943Z,98300.22
2022-10-01T03:37:15.712Z,98295.47
2022-10-01T03:39:45.795Z,98303.72
2022-10-01T03:42:13.469Z,98289.75
2022-10-01T03:44:41.166Z,98295.56
2022-10-01T03:47:09.696Z,98289.56
2022-10-01T03:49:39.072Z,98284.72
2022-10-01T03:52:07.563Z,98280.38
2022-10-01T03:54:35.266Z,98275.56
2022-10-01T03:57:02.967Z,98279.09
2022-10-01T03:59:30.651Z,98270.41
2022-10-01T04:01:58.465Z,98261.59
2022-10-01T04:04:28.903Z,98265.31
2022-10-01T04:06:57.943Z,98270.91
2022-10-01T04:09:25.948Z,98271.09
2022-10-01T04:11:53.645Z,98263.56
2022-10-01T04:14:21.301Z,98257.75
2022-10-01T04:16:50.605Z,98262.06
2022-10-01T04:19:18.344Z,98251.59
2022-10-01T04:21:46.147Z,98261.41
2022-10-01T04:24:15.377Z,98265.44
2022-10-01T04:26:45.496Z,98260.28
2022-10-01T04:29:13.161Z,98268.66
2022-10-01T04:31:40.922Z,98255.75
2022-10-01T04:34:08.929Z,98256.72
2022-10-01T04:36:36.600Z,98250.16
2022-10-01T04:39:06.425Z,98249.97
2022-10-01T04:41:35.713Z,98248.50
2022-10-01T04:44:04.153Z,98248.88
2022-10-01T04:46:32.141Z,98246.91
2022-10-01T04:49:02.129Z,98245.03
2022-10-01T04:51:29.820Z,98244.34
2022-10-01T04:53:57.712Z,98250.59
2022-10-01T04:56:25.436Z,98245.94
2022-10-01T04:58:54.480Z,98249.44
2022-10-01T05:01:22.262Z,98250.78
2022-10-01T05:03:50.084Z,98254.47
2022-10-01T05:06:17.816Z,98249.69
2022-10-01T05:08:45.471Z,98233.31
2022-10-01T05:11:13.144Z,98244.94
2022-10-01T05:13:41.602Z,98247.53
2022-10-01T05:16:11.725Z,98243.38
2022-10-01T05:18:40.525Z,98247.63
2022-10-01T05:21:11.735Z,98244.50
2022-10-01T05:23:39.789Z,98252.47
2022-10-01T05:26:10.444Z,98245.69
2022-10-01T05:28:43.208Z,98239.88
2022-10-01T05:31:13.230Z,98233.59
2022-10-01T05:33:41.955Z,98231.06
2022-10-01T05:36:11.969Z,98227.13
2022-10-01T05:38:39.671Z,98230.97
2022-10-01T05:41:07.522Z,98243.75
2022-10-01T05:43:36.348Z,98237.09
2022-10-01T05:46:06.775Z,98241.38
2022-10-01T05:48:36.798Z,98237.06
2022-10-01T05:51:08.333Z,98232.22
2022-10-01T05:53:38.041Z,98230.69
2022-10-01T05:56:06.527Z,98221.44
2022-10-01T05:58:34.931Z,98211.47
2022-10-01T06:01:04.028Z,98215.66
2022-10-01T06:03:31.939Z,98206.16
2022-10-01T06:06:01.388Z,98205.16
2022-10-01T06:08:29.101Z,98189.22
2022-10-01T06:11:00.759Z,98187.31
2022-10-01T06:13:29.219Z,98183.41
2022-10-01T06:15:57.461Z,98184.00
2022-10-01T06:18:25.158Z,98182.19
2022-10-01T06:20:52.839Z,98183.41
2022-10-01T06:23:21.836Z,98170.91
2022-10-01T06:25:49.785Z,98177.81
2022-10-01T06:28:19.912Z,98174.19
2022-10-01T06:30:47.681Z,98175.03
2022-10-01T06:33:18.011Z,98163.81
2022-10-01T06:35:47.736Z,98171.94
2022-10-01T06:38:16.564Z,98174.41
2022-10-01T06:40:45.736Z,98173.75
2022-10-01T06:43:13.678Z,98171.34
2022-10-01T06:45:42.436Z,98170.19
2022-10-01T06:48:14.030Z,98174.78
2022-10-01T06:50:43.200Z,98174.72
2022-10-01T06:53:10.194Z,98177.16
2022-10-01T06:55:38.771Z,98172.97
2022-10-01T06:58:09.657Z,98176.97
2022-10-01T07:00:39.039Z,98183.50
2022-10-01T07:03:10.687Z,98190.31
2022-10-01T07:05:38.786Z,98179.97
2022-10-01T07:08:07.836Z,98180.47
2022-10-01T07:10:36.427Z,98179.09
2022-10-01T07:13:10.249Z,98182.59
2022-10-01T07:15:38.280Z,98174.66
2022-10-01T07:18:08.577Z,98165.91
2022-10-01T07:20:39.546Z,98175.88
2022-10-01T07:23:08.781Z,98172.50
2022-10-01T07:25:38.596Z,98172.19
2022-10-01T07:28:15.947Z,98166.78
2022-10-01T07:30:44.003Z,98176.84
2022-10-01T07:33:11.970Z,98176.03
2022-10-01T07:35:39.681Z,98155.16
2022-10-01T07:38:08.063Z,98155.28
2022-10-01T07:40:35.906Z,98162.38
2022-10-01T07:43:03.591Z,98158.94
2022-10-01T07:45:35.275Z,98161.38
2022-10-01T07:48:04.394Z,98163.03
2022-10-01T07:50:32.165Z,98164.00
2022-10-01T07:53:00.839Z,98159.25
2022-10-01T07:55:32.703Z,98162.31
2022-10-01T07:58:01.426Z,98171.22
2022-10-01T08:00:31.115Z,98174.34
2022-10-01T08:03:00.201Z,98178.25
2022-10-01T08:05:32.343Z,98168.25
2022-10-01T08:08:01.443Z,98164.47
2022-10-01T08:10:30.525Z,98164.63
2022-10-01T08:13:01.909Z,98161.16
2022-10-01T08:15:29.856Z,98162.84
2022-10-01T08:17:57.580Z,98168.72
2022-10-01T08:20:26.647Z,98175.94
2022-10-01T08:22:54.448Z,98180.88
2022-10-01T08:25:22.094Z,98181.34
2022-10-01T08:27:49.860Z,98185.69
2022-10-01T08:30:19.684Z,98177.50
2022-10-01T08:32:47.572Z,98185.06
2022-10-01T08:35:18.090Z,98192.13
2022-10-01T08:37:47.114Z,98201.31
2022-10-01T08:40:15.317Z,98187.81
2022-10-01T08:42:52.470Z,98189.72
2022-10-01T08:45:26.500Z,98194.50
2022-10-01T08:48:02.949Z,98190.91
2022-10-01T08:50:41.045Z,98198.31
2022-10-01T08:53:15.523Z,98194.81
2022-10-01T08:55:44.826Z,98191.19
2022-10-01T08:58:19.779Z,98201.47
2022-10-01T09:00:50.971Z,98190.19
2022-10-01T09:03:19.632Z,98189.78
2022-10-01T09:05:58.190Z,98195.72
2022-10-01T09:08:46.148Z,98194.66
2022-10-01T09:11:21.969Z,98203.50
2022-10-01T09:14:06.733Z,98198.91
2022-10-01T09:16:43.580Z,98200.88
2022-10-01T09:19:26.540Z,98194.59
2022-10-01T09:21:58.198Z,98196.75
2022-10-01T09:24:42.164Z,98200.13
2022-10-01T09:27:14.808Z,98198.44
2022-10-01T09:29:48.624Z,98180.72
2022-10-01T09:32:20.886Z,98176.25
2022-10-01T09:34:48.998Z,98181.69
2022-10-01T09:37:26.795Z,98190.22
2022-10-01T09:40:05.666Z,98194.25
2022-10-01T09:42:33.981Z,98188.44
2022-10-01T09:45:01.708Z,98195.44
2022-10-01T09:47:29.567Z,98209.66
2022-10-01T09:50:01.158Z,98202.34
2022-10-01T09:52:34.505Z,98204.44
2022-10-01T09:55:10.474Z,98208.41
2022-10-01T09:57:43.164Z,98210.44
2022-10-01T10:00:18.352Z,98206.84
2022-10-01T10:02:50.015Z,98210.88
2022-10-01T10:05:20.753Z,98212.75
2022-10-01T10:07:52.667Z,98214.97
2022-10-01T10:10:26.067Z,98213.16
2022-10-01T10:13:00.061Z,98205.19
2022-10-01T10:15:31.243Z,98214.13
2022-10-01T10:18:07.790Z,98207.41
2022-10-01T10:20:40.305Z,98207.00
2022-10-01T10:23:10.187Z,98212.19
2022-10-01T10:25:39.288Z,98204.06
2022-10-01T10:28:20.347Z,98183.41
2022-10-01T10:30:48.939Z,98199.34
2022-10-01T10:33:18.153Z,98187.47
2022-10-01T10:35:45.992Z,98182.59
2022-10-01T10:38:18.895Z,98194.47
2022-10-01T10:40:51.093Z,98190.13
2022-10-01T10:43:22.683Z,98196.25
2022-10-01T10:45:56.198Z,98199.88
2022-10-01T10:48:28.946Z,98190.13
2022-10-01T10:51:00.971Z,98183.00
2022-10-01T10:53:33.527Z,98184.22
2022-10-01T10:56:05.799Z,98188.84
2022-10-01T10:58:37.926Z,98181.69
2022-10-01T11:01:09.104Z,98170.28
2022-10-01T11:03:42.486Z,98176.00
2022-10-01T11:06:13.024Z,98174.19
2022-10-01T11:08:45.727Z,98171.97
2022-10-01T11:11:32.285Z,98177.00
2022-10-01T11:14:13.181Z,98173.94
2022-10-01T11:16:54.073Z,98170.53
2022-10-01T11:19:39.924Z,98163.78
2022-10-01T11:22:20.888Z,98167.19
2022-10-01T11:25:10.453Z,98179.19
2022-10-01T11:27:49.464Z,98171.53
2022-10-01T11:30:24.794Z,98171.09
2022-10-01T11:33:03.438Z,98179.72
2022-10-01T11:35:50.148Z,98176.69
2022-10-01T11:38:37.749Z,98186.19
2022-10-01T11:41:16.031Z,98179.59
2022-10-01T11:43:50.596Z,98181.44
2022-10-01T11:46:28.393Z,98195.84
2022-10-01T11:49:02.675Z,98194.66
2022-10-01T11:51:35.634Z,98195.91
2022-10-01T11:54:08.317Z,98195.78
2022-10-01T11:56:58.856Z,98205.44
2022-10-01T11:59:36.915Z,98209.84
2022-10-01T12:02:15.769Z,98213.00
2022-10-01T12:04:49.629Z,98222.19
2022-10-01T12:07:23.304Z,98222.50
2022-10-01T12:10:00.879Z,98226.13
2022-10-01T12:12:34.445Z,98228.41
2022-10-01T12:15:10.886Z,98227.53
2022-10-01T12:17:45.300Z,98223.03
2022-10-01T12:20:24.126Z,98221.00
2022-10-01T12:22:56.261Z,98227.72
2022-10-01T12:25:30.786Z,98227.66
2022-10-01T12:28:07.518Z,98226.88
2022-10-01T12:30:43.728Z,98221.25
2022-10-01T12:33:32.114Z,98240.81
2022-10-01T12:36:10.963Z,98222.16
2022-10-01T12:38:52.029Z,98223.66
2022-10-01T12:41:32.278Z,98227.66
2022-10-01T12:44:28.431Z,98227.84
2022-10-01T12:47:11.268Z,98241.03
2022-10-01T12:49:44.807Z,98231.53
2022-10-01T12:52:21.145Z,98228.50
2022-10-01T12:55:07.007Z,98235.03
2022-10-01T12:57:45.765Z,98239.03
2022-10-01T13:00:18.955Z,98235.63
2022-10-01T13:03:18.862Z,98235.03
2022-10-01T13:06:01.305Z,98233.41
2022-10-01T13:08:47.808Z,98239.75
2022-10-01T13:11:28.145Z,98235.81
2022-10-01T13:13:57.407Z,98228.13
2022-10-01T13:16:33.689Z,98235.84
2022-10-01T13:19:08.144Z,98238.13
2022-10-01T13:21:52.691Z,98246.59
2022-10-01T13:24:29.264Z,98247.81
2022-10-01T13:27:03.395Z,98234.44
2022-10-01T13:29:44.931Z,98233.06
2022-10-01T13:32:32.200Z,98241.44
2022-10-01T13:35:03.666Z,98231.03
2022-10-01T13:37:38.203Z,98238.34
2022-10-01T13:40:22.988Z,98236.31
2022-10-01T13:42:52.847Z,98235.44
2022-10-01T13:45:29.064Z,98236.13
2022-10-01T13:48:16.813Z,98233.94
2022-10-01T13:50:58.972Z,98238.63
2022-10-01T13:53:29.727Z,98232.69
2022-10-01T13:55:58.725Z,98237.59
2022-10-01T13:58:35.556Z,98233.00
2022-10-01T14:01:06.021Z,98237.81
2022-10-01T14:03:43.769Z,98243.06
2022-10-01T14:06:19.366Z,98238.97
2022-10-01T14:08:52.461Z,98238.84
2022-10-01T14:11:44.286Z,98239.78
2022-10-01T14:14:32.752Z,98242.66
2022-10-01T14:17:03.348Z,98243.16
2022-10-01T14:19:32.129Z,98244.56
2022-10-01T14:22:43.797Z,98244.78
2022-10-01T14:25:39.507Z,98241.13
2022-10-01T14:28:28.151Z,98241.94
2022-10-01T14:31:06.825Z,98247.41
2022-10-01T14:34:00.223Z,98248.16
2022-10-01T14:36:34.936Z,98252.34
2022-10-01T14:39:14.914Z,98236.75
2022-10-01T14:41:44.524Z,98252.00
2022-10-01T14:44:25.572Z,98254.75
2022-10-01T14:46:54.892Z,98256.94
2022-10-01T14:49:25.940Z,98252.75
2022-10-01T14:51:59.687Z,98251.50
2022-10-01T14:54:28.406Z,98249.13
2022-10-01T14:57:00.281Z,98257.44
2022-10-01T14:59:36.015Z,98260.84
2022-10-01T15:02:18.486Z,98264.16
2022-10-01T15:04:47.860Z,98260.06
2022-10-01T15:07:17.186Z,98271.59
2022-10-01T15:09:45.282Z,98264.94
2022-10-01T15:12:18.823Z,98269.13
2022-10-01T15:14:47.961Z,98269.53
2022-10-01T15:17:22.287Z,98266.97
2022-10-01T15:19:52.794Z,98263.63
2022-10-01T15:22:25.120Z,98267.47
2022-10-01T15:24:56.945Z,98276.53
2022-10-01T15:27:26.700Z,98278.69
2022-10-01T15:29:58.643Z,98282.47
2022-10-01T15:32:29.514Z,98276.50
2022-10-01T15:34:59.080Z,98287.66
2022-10-01T15:37:32.084Z,98281.03
2022-10-01T15:40:01.664Z,98284.16
2022-10-01T15:42:35.239Z,98276.78
2022-10-01T15:45:23.268Z,98281.00
2022-10-01T15:47:52.201Z,98294.78
2022-10-01T15:50:22.282Z,98299.28
2022-10-01T15:52:57.851Z,98302.28
2022-10-01T15:55:31.661Z,98309.91
2022-10-01T15:58:06.874Z,98315.75
2022-10-01T16:00:43.501Z,98303.38
2022-10-01T16:03:23.225Z,98307.53
2022-10-01T16:05:56.024Z,98321.59
2022-10-01T16:08:32.795Z,98318.03
2022-10-01T16:11:20.909Z,98325.22
2022-10-01T16:13:52.878Z,98325.41
2022-10-01T16:16:26.971Z,98326.69
2022-10-01T16:18:59.286Z,98334.38
2022-10-01T16:21:39.023Z,98341.88
2022-10-01T16:24:28.397Z,98345.41
2022-10-01T16:27:00.245Z,98338.25
2022-10-01T16:29:29.813Z,98344.59
2022-10-01T16:31:57.751Z,98343.78
2022-10-01T16:34:27.481Z,98347.34
2022-10-01T16:36:55.193Z,98352.34
2022-10-01T16:39:25.239Z,98359.03
2022-10-01T16:42:19.164Z,98359.66
2022-10-01T16:44:44.136Z,98362.09
2022-10-01T16:47:13.229Z,98361.34
2022-10-01T16:49:43.357Z,98362.72
2022-10-01T16:52:14.208Z,98371.00
2022-10-01T16:54:42.015Z,98377.94
2022-10-01T16:57:11.190Z,98392.09
2022-10-01T16:59:39.199Z,98394.59
2022-10-01T17:02:12.673Z,98392.34
2022-10-01T17:04:40.965Z,98392.47
2022-10-01T17:07:08.761Z,98390.88
2022-10-01T17:09:38.517Z,98399.47
2022-10-01T17:12:06.211Z,98405.16
2022-10-01T17:14:33.882Z,98402.69
2022-10-01T17:17:01.582Z,98408.94
2022-10-01T17:19:30.626Z,98411.53
2022-10-01T17:21:58.303Z,98405.91
2022-10-01T17:24:26.180Z,98417.50
2022-10-01T17:26:54.442Z,98424.00
2022-10-01T17:29:22.110Z,98421.22
2022-10-01T17:31:53.249Z,98424.53
2022-10-01T17:34:21.983Z,98433.84
2022-10-01T17:36:51.704Z,98434.94
2022-10-01T17:39:19.352Z,98437.59
2022-10-01T17:41:47.127Z,98429.94
2022-10-01T17:44:14.967Z,98438.59
2022-10-01T17:46:42.965Z,98441.19
2022-10-01T17:49:10.649Z,98445.28
2022-10-01T17:51:38.536Z,98452.78
2022-10-01T17:54:10.118Z,98452.38
2022-10-01T17:56:38.762Z,98466.31
2022-10-01T17:59:06.513Z,98463.41
2022-10-01T18:01:34.308Z,98469.00
2022-10-01T18:04:03.894Z,98479.94
2022-10-01T18:06:31.690Z,98481.00
2022-10-01T18:09:00.353Z,98484.09
2022-10-01T18:11:29.987Z,98491.66
2022-10-01T18:13:57.775Z,98497.84
2022-10-01T18:16:26.337Z,98498.09
2022-10-01T18:21:46.874Z,98500.25
2022-10-01T18:24:17.414Z,98509.63
2022-10-01T18:26:46.984Z,98512.06
2022-10-01T18:29:19.102Z,98528.31
2022-10-01T18:31:47.204Z,98524.59
2022-10-01T18:34:23.473Z,98527.34
2022-10-01T18:36:56.889Z,98539.47
2022-10-01T18:39:32.636Z,98550.13
2022-10-01T18:42:04.621Z,98560.97
2022-10-01T18:44:32.321Z,98568.81
2022-10-01T18:47:14.772Z,98575.22
2022-10-01T18:50:19.073Z,98579.97
2022-10-01T18:53:00.175Z,98583.41
2022-10-01T18:55:40.249Z,98590.13
2022-10-01T18:58:26.564Z,98589.53
2022-10-01T19:01:02.878Z,98579.31
2022-10-01T19:04:00.494Z,98586.63
2022-10-01T19:06:52.855Z,98598.09
2022-10-01T19:09:30.870Z,98602.25
2022-10-01T19:12:10.747Z,98609.00
2022-10-01T19:14:52.095Z,98619.06
2022-10-01T19:17:45.671Z,98621.31
2022-10-01T19:20:26.493Z,98616.69
2022-10-01T19:23:16.206Z,98619.91
2022-10-01T19:25:51.143Z,98618.63
2022-10-01T19:28:35.469Z,98622.72
2022-10-01T19:31:13.897Z,98632.25
2022-10-01T19:33:47.697Z,98633.03
2022-10-01T19:36:24.430Z,98636.72
2022-10-01T19:38:54.364Z,98638.34
2022-10-01T19:41:38.732Z,98638.88
2022-10-01T19:44:14.756Z,98649.31
2022-10-01T19:46:47.296Z,98649.97
2022-10-01T19:49:21.742Z,98650.94
2022-10-01T19:51:56.981Z,98659.03
2022-10-01T19:54:30.251Z,98668.47
2022-10-01T19:57:04.294Z,98662.47
2022-10-01T19:59:32.042Z,98670.56
2022-10-01T20:02:06.224Z,98673.22
2022-10-01T20:04:39.075Z,98683.47
2022-10-01T20:07:12.596Z,98685.72
2022-10-01T20:09:45.626Z,98696.25
2022-10-01T20:12:24.305Z,98695.28
2022-10-01T20:15:09.670Z,98709.84
2022-10-01T20:17:51.273Z,98710.13
2022-10-01T20:20:24.734Z,98711.66
2022-10-01T20:23:08.135Z,98716.84
2022-10-01T20:25:44.849Z,98724.97
2022-10-01T20:28:20.757Z,98726.78
2022-10-01T20:30:59.560Z,98726.38
2022-10-01T20:33:42.944Z,98725.53
2022-10-01T20:36:18.635Z,98726.94
2022-10-01T20:38:54.986Z,98730.63
2022-10-01T20:41:24.415Z,98742.13
2022-10-01T20:43:56.664Z,98741.06
2022-10-01T20:46:32.234Z,98731.97
2022-10-01T20:49:04.057Z,98748.78
2022-10-01T20:51:36.902Z,98753.38
2022-10-01T20:54:11.141Z,98753.78
2022-10-01T20:56:42.687Z,98760.66
2022-10-01T20:59:17.891Z,98759.84
2022-10-01T21:01:54.159Z,98768.19
2022-10-01T21:04:29.346Z,98766.22
2022-10-01T21:07:02.536Z,98770.53
2022-10-01T21:09:33.810Z,98766.38
2022-10-01T21:12:06.023Z,98763.75
2022-10-01T21:14:37.174Z,98766.13
2022-10-01T21:17:27.424Z,98773.28
2022-10-01T21:20:12.613Z,98773.16
2022-10-01T21:22:57.487Z,98785.78
2022-10-01T21:25:33.524Z,98788.69
2022-10-01T21:28:16.061Z,98794.84
2022-10-01T21:30:58.385Z,98794.16
2022-10-01T21:33:31.603Z,98794.16
2022-10-01T21:36:13.862Z,98797.81
2022-10-01T21:38:49.034Z,98791.66
2022-10-01T21:41:36.461Z,98801.47
2022-10-01T21:44:24.602Z,98802.28
2022-10-01T21:47:00.258Z,98810.22
2022-10-01T21:49:42.226Z,98818.03
2022-10-01T21:52:25.068Z,98835.38
2022-10-01T21:55:20.693Z,98824.41
2022-10-01T21:58:03.102Z,98822.88
2022-10-01T22:00:32.580Z,98822.06
2022-10-01T22:03:19.021Z,98824.47
2022-10-01T22:05:53.569Z,98842.66
2022-10-01T22:08:37.035Z,98841.66
2022-10-01T22:11:10.690Z,98841.97
2022-10-01T22:13:43.288Z,98841.13
2022-10-01T22:16:15.053Z,98854.69
2022-10-01T22:18:47.283Z,98868.66
2022-10-01T22:21:25.722Z,98865.16
2022-10-01T22:24:02.477Z,98873.41
2022-10-01T22:26:35.179Z,98854.16
2022-10-01T22:29:08.161Z,98855.16
2022-10-01T22:31:40.545Z,98855.59
2022-10-01T22:34:15.615Z,98845.59
2022-10-01T22:36:49.980Z,98864.97
2022-10-01T22:39:23.474Z,98867.41
2022-10-01T22:41:56.019Z,98868.41
2022-10-01T22:44:24.394Z,98870.69
2022-10-01T22:47:10.715Z,98875.16
2022-10-01T22:49:50.434Z,98881.88
2022-10-01T22:52:27.443Z,98892.66
2022-10-01T22:55:08.477Z,98892.31
2022-10-01T22:57:51.656Z,98885.88
2022-10-01T23:00:21.219Z,98880.66
2022-10-01T23:03:03.194Z,98887.44
2022-10-01T23:05:50.532Z,98895.31
2022-10-01T23:08:26.729Z,98887.84
2022-10-01T23:11:07.339Z,98899.19
2022-10-01T23:13:43.032Z,98905.38
2022-10-01T23:16:21.443Z,98895.31
2022-10-01T23:18:59.170Z,98901.75
2022-10-01T23:21:36.044Z,98911.28
2022-10-01T23:24:15.548Z,98908.59
2022-10-01T23:26:58.208Z,98905.09
2022-10-01T23:29:50.257Z,98898.94
2022-10-01T23:32:36.535Z,98906.22
2022-10-01T23:35:14.472Z,98914.19
2022-10-01T23:38:05.433Z,98932.81
2022-10-01T23:40:38.034Z,98932.56
2022-10-01T23:43:12.559Z,98932.41
2022-10-01T23:45:48.471Z,98935.91
2022-10-01T23:48:22.347Z,98927.25
2022-10-01T23:50:55.531Z,98933.25
2022-10-01T23:53:28.854Z,98937.97
2022-10-01T23:56:21.140Z,98948.88
2022-10-01T23:58:55.404Z,98950.00
